sensor_id;sensor_type;location;lat;lon;timestamp;pressure;altitude;pressure_sealevel;temperature;humidity
5574;BME280;2563;52.242;7.956;2023-01-29T00:00:06;100279.84;;;-0.10;100.00
5574;BME280;2563;52.242;7.956;2023-01-29T00:02:35;100279.03;;;-0.09;100.00
5574;BME280;2563;52.242;7.956;2023-01-29T00:05:00;100273.97;;;-0.09;100.00
5574;BME280;2563;52.242;7.956;2023-01-29T00:07:26;100266.38;;;-0.08;100.00
5574;BME280;2563;52.242;7.956;2023-01-29T00:09:51;100270.56;;;-0.10;100.00
5574;BME280;2563;52.242;7.956;2023-01-29T00:12:17;100262.13;;;-0.10;100.00
5574;BME280;2563;52.242;7.956;2023-01-29T00:14:42;100248.66;;;-0.11;100.00
5574;BME280;2563;52.242;7.956;2023-01-29T00:17:07;100252.81;;;-0.13;100.00
5574;BME280;2563;52.242;7.956;2023-01-29T00:19:34;100252.00;;;-0.12;100.00
5574;BME280;2563;52.242;7.956;2023-01-29T00:21:59;100257.06;;;-0.12;100.00
5574;BME280;2563;52.242;7.956;2023-01-29T00:24:25;100260.44;;;-0.11;100.00
5574;BME280;2563;52.242;7.956;2023-01-29T00:26:50;100252.00;;;-0.10;100.00
5574;BME280;2563;52.242;7.956;2023-01-29T00:29:16;100252.84;;;-0.11;100.00
5574;BME280;2563;52.242;7.956;2023-01-29T00:31:43;100252.84;;;-0.11;100.00
5574;BME280;2563;52.242;7.956;2023-01-29T00:34:09;100254.53;;;-0.10;100.00
5574;BME280;2563;52.242;7.956;2023-01-29T00:36:34;100246.16;;;-0.09;100.00
5574;BME280;2563;52.242;7.956;2023-01-29T00:39:00;100245.31;;;-0.08;100.00
5574;BME280;2563;52.242;7.956;2023-01-29T00:41:28;100246.19;;;-0.06;100.00
5574;BME280;2563;52.242;7.956;2023-01-29T00:44:12;100244.50;;;-0.06;100.00
5574;BME280;2563;52.242;7.956;2023-01-29T00:46:56;100247.88;;;-0.05;100.00
5574;BME280;2563;52.242;7.956;2023-01-29T00:49:22;100248.72;;;-0.06;100.00
5574;BME280;2563;52.242;7.956;2023-01-29T00:51:47;100242.78;;;-0.08;100.00
5574;BME280;2563;52.242;7.956;2023-01-29T00:54:33;100226.78;;;-0.07;100.00
5574;BME280;2563;52.242;7.956;2023-01-29T00:56:59;100216.59;;;-0.10;100.00
5574;BME280;2563;52.242;7.956;2023-01-29T00:59:24;100210.72;;;-0.09;100.00
5574;BME280;2563;52.242;7.956;2023-01-29T01:01:49;100203.97;;;-0.10;100.00
5574;BME280;2563;52.242;7.956;2023-01-29T01:04:33;100191.31;;;-0.10;100.00
5574;BME280;2563;52.242;7.956;2023-01-29T01:06:58;100193.88;;;-0.09;100.00
5574;BME280;2563;52.242;7.956;2023-01-29T01:09:24;100189.63;;;-0.10;100.00
5574;BME280;2563;52.242;7.956;2023-01-29T01:12:07;100187.97;;;-0.08;100.00
5574;BME280;2563;52.242;7.956;2023-01-29T01:14:33;100195.59;;;-0.06;100.00
5574;BME280;2563;52.242;7.956;2023-01-29T01:17:01;100192.22;;;-0.05;100.00
5574;BME280;2563;52.242;7.956;2023-01-29T01:19:26;100193.06;;;-0.06;100.00
5574;BME280;2563;52.242;7.956;2023-01-29T01:21:52;100197.28;;;-0.05;100.00
5574;BME280;2563;52.242;7.956;2023-01-29T01:24:17;100211.63;;;-0.04;100.00
5574;BME280;2563;52.242;7.956;2023-01-29T01:26:44;100212.44;;;-0.07;100.00
5574;BME280;2563;52.242;7.956;2023-01-29T01:29:09;100217.50;;;-0.05;100.00
5574;BME280;2563;52.242;7.956;2023-01-29T01:31:35;100228.50;;;-0.05;100.00
5574;BME280;2563;52.242;7.956;2023-01-29T01:34:00;100229.34;;;-0.04;100.00
5574;BME280;2563;52.242;7.956;2023-01-29T01:36:26;100221.75;;;-0.04;100.00
5574;BME280;2563;52.242;7.956;2023-01-29T01:38:51;100216.66;;;-0.06;100.00
5574;BME280;2563;52.242;7.956;2023-01-29T01:41:19;100219.19;;;-0.07;100.00
5574;BME280;2563;52.242;7.956;2023-01-29T01:43:50;100230.97;;;-0.08;100.00
5574;BME280;2563;52.242;7.956;2023-01-29T01:46:15;100225.91;;;-0.09;100.00
5574;BME280;2563;52.242;7.956;2023-01-29T01:48:42;100236.03;;;-0.08;100.00
5574;BME280;2563;52.242;7.956;2023-01-29T01:51:09;100239.44;;;-0.07;100.00
5574;BME280;2563;52.242;7.956;2023-01-29T01:53:52;100249.56;;;-0.07;100.00
5574;BME280;2563;52.242;7.956;2023-01-29T01:56:23;100251.25;;;-0.06;100.00
5574;BME280;2563;52.242;7.956;2023-01-29T01:58:54;100256.31;;;-0.06;100.00
5574;BME280;2563;52.242;7.956;2023-01-29T02:01:22;100268.09;;;-0.05;100.00
5574;BME280;2563;52.242;7.956;2023-01-29T02:04:01;100265.56;;;-0.07;100.00
5574;BME280;2563;52.242;7.956;2023-01-29T02:06:47;100263.84;;;-0.08;100.00
5574;BME280;2563;52.242;7.956;2023-01-29T02:09:36;100273.97;;;-0.08;100.00
5574;BME280;2563;52.242;7.956;2023-01-29T02:12:10;100261.31;;;-0.09;100.00
5574;BME280;2563;52.242;7.956;2023-01-29T02:14:37;100268.91;;;-0.09;100.00
5574;BME280;2563;52.242;7.956;2023-01-29T02:17:05;100282.41;;;-0.09;100.00
5574;BME280;2563;52.242;7.956;2023-01-29T02:25:22;100264.72;;;-0.07;100.00
5574;BME280;2563;52.242;7.956;2023-01-29T02:30:35;100267.25;;;-0.06;100.00
5574;BME280;2563;52.242;7.956;2023-01-29T02:33:22;100268.13;;;-0.04;100.00
5574;BME280;2563;52.242;7.956;2023-01-29T02:36:11;100262.25;;;-0.03;100.00
5574;BME280;2563;52.242;7.956;2023-01-29T02:41:29;100268.22;;;0.01;100.00
5574;BME280;2563;52.242;7.956;2023-01-29T02:46:38;100253.88;;;0.00;100.00
5574;BME280;2563;52.242;7.956;2023-01-29T02:51:57;100261.41;;;-0.03;100.00
5574;BME280;2563;52.242;7.956;2023-01-29T02:54:32;100275.78;;;0.01;100.00
5574;BME280;2563;52.242;7.956;2023-01-29T02:57:31;100274.16;;;0.03;100.00
5574;BME280;2563;52.242;7.956;2023-01-29T03:05:31;100271.66;;;0.06;100.00
5574;BME280;2563;52.242;7.956;2023-01-29T03:08:03;100274.22;;;0.08;100.00
5574;BME280;2563;52.242;7.956;2023-01-29T03:10:35;100261.53;;;0.06;100.00
5574;BME280;2563;52.242;7.956;2023-01-29T03:13:17;100262.38;;;0.07;100.00
5574;BME280;2563;52.242;7.956;2023-01-29T03:15:48;100257.31;;;0.07;100.00
5574;BME280;2563;52.242;7.956;2023-01-29T03:18:23;100253.09;;;0.07;100.00
5574;BME280;2563;52.242;7.956;2023-01-29T03:20:59;100242.16;;;0.08;100.00
5574;BME280;2563;52.242;7.956;2023-01-29T03:23:29;100254.84;;;0.11;100.00
5574;BME280;2563;52.242;7.956;2023-01-29T03:26:15;100251.50;;;0.12;100.00
5574;BME280;2563;52.242;7.956;2023-01-29T03:29:03;100248.09;;;0.10;100.00
5574;BME280;2563;52.242;7.956;2023-01-29T03:31:48;100254.00;;;0.11;100.00
5574;BME280;2563;52.242;7.956;2023-01-29T03:34:57;100255.69;;;0.10;100.00
5574;BME280;2563;52.242;7.956;2023-01-29T03:37:26;100253.16;;;0.10;100.00
5574;BME280;2563;52.242;7.956;2023-01-29T03:39:53;100244.72;;;0.11;100.00
5574;BME280;2563;52.242;7.956;2023-01-29T03:56:04;100234.53;;;0.05;100.00
5574;BME280;2563;52.242;7.956;2023-01-29T03:58:54;100225.22;;;0.03;100.00
5574;BME280;2563;52.242;7.956;2023-01-29T04:01:41;100229.47;;;0.05;100.00
5574;BME280;2563;52.242;7.956;2023-01-29T04:04:14;100224.41;;;0.05;100.00
5574;BME280;2563;52.242;7.956;2023-01-29T04:06:43;100224.41;;;0.05;100.00
5574;BME280;2563;52.242;7.956;2023-01-29T04:09:18;100228.66;;;0.09;100.00
5574;BME280;2563;52.242;7.956;2023-01-29T04:12:07;100221.88;;;0.07;100.00
5574;BME280;2563;52.242;7.956;2023-01-29T04:14:34;100220.19;;;0.07;100.00
5574;BME280;2563;52.242;7.956;2023-01-29T04:17:04;100214.31;;;0.08;100.00
5574;BME280;2563;52.242;7.956;2023-01-29T04:19:32;100201.63;;;0.04;100.00
5574;BME280;2563;52.242;7.956;2023-01-29T04:22:18;100202.50;;;0.06;100.00
5574;BME280;2563;52.242;7.956;2023-01-29T04:24:45;100208.38;;;0.05;100.00
5574;BME280;2563;52.242;7.956;2023-01-29T04:27:32;100218.50;;;0.06;100.00
5574;BME280;2563;52.242;7.956;2023-01-29T04:35:31;100205.00;;;0.03;100.00
5574;BME280;2563;52.242;7.956;2023-01-29T04:41:10;100189.75;;;-0.01;100.00
5574;BME280;2563;52.242;7.956;2023-01-29T04:46:38;100184.69;;;-0.01;100.00
5574;BME280;2563;52.242;7.956;2023-01-29T04:57:39;100157.69;;;-0.05;100.00
5574;BME280;2563;52.242;7.956;2023-01-29T05:02:36;100161.03;;;-0.06;100.00
5574;BME280;2563;52.242;7.956;2023-01-29T05:05:04;100164.38;;;-0.05;100.00
5574;BME280;2563;52.242;7.956;2023-01-29T05:07:32;100170.31;;;-0.03;100.00
5574;BME280;2563;52.242;7.956;2023-01-29T05:09:59;100166.94;;;-0.04;100.00
5574;BME280;2563;52.242;7.956;2023-01-29T05:12:27;100172.91;;;0.00;100.00
5574;BME280;2563;52.242;7.956;2023-01-29T05:14:57;100168.66;;;-0.01;100.00
5574;BME280;2563;52.242;7.956;2023-01-29T05:17:25;100165.31;;;0.00;100.00
5574;BME280;2563;52.242;7.956;2023-01-29T05:19:51;100163.59;;;-0.01;100.00
5574;BME280;2563;52.242;7.956;2023-01-29T05:22:17;100161.91;;;-0.01;100.00
5574;BME280;2563;52.242;7.956;2023-01-29T05:24:49;100157.69;;;-0.02;100.00
5574;BME280;2563;52.242;7.956;2023-01-29T05:27:20;100153.50;;;-0.01;100.00
5574;BME280;2563;52.242;7.956;2023-01-29T05:30:06;100146.69;;;-0.05;100.00
5574;BME280;2563;52.242;7.956;2023-01-29T05:32:31;100140.81;;;-0.04;100.00
5574;BME280;2563;52.242;7.956;2023-01-29T05:34:57;100147.50;;;-0.09;100.00
5574;BME280;2563;52.242;7.956;2023-01-29T05:37:22;100143.25;;;-0.10;100.00
5574;BME280;2563;52.242;7.956;2023-01-29T05:39:48;100139.03;;;-0.11;100.00
5574;BME280;2563;52.242;7.956;2023-01-29T05:42:13;100132.25;;;-0.12;100.00
5574;BME280;2563;52.242;7.956;2023-01-29T05:44:38;100141.56;;;-0.11;100.00
5574;BME280;2563;52.242;7.956;2023-01-29T05:47:04;100139.91;;;-0.09;100.00
5574;BME280;2563;52.242;7.956;2023-01-29T05:49:29;100136.50;;;-0.11;100.00
5574;BME280;2563;52.242;7.956;2023-01-29T05:51:54;100128.03;;;-0.13;100.00
5574;BME280;2563;52.242;7.956;2023-01-29T05:54:20;100131.38;;;-0.16;100.00
5574;BME280;2563;52.242;7.956;2023-01-29T05:56:45;100115.38;;;-0.15;100.00
5574;BME280;2563;52.242;7.956;2023-01-29T05:59:10;100116.19;;;-0.17;100.00
5574;BME280;2563;52.242;7.956;2023-01-29T06:01:36;100116.22;;;-0.16;100.00
5574;BME280;2563;52.242;7.956;2023-01-29T06:04:01;100111.13;;;-0.17;100.00
5574;BME280;2563;52.242;7.956;2023-01-29T06:06:27;100109.44;;;-0.17;100.00
5574;BME280;2563;52.242;7.956;2023-01-29T06:08:52;100105.25;;;-0.16;100.00
5574;BME280;2563;52.242;7.956;2023-01-29T06:11:17;100104.38;;;-0.18;100.00
5574;BME280;2563;52.242;7.956;2023-01-29T06:13:44;100102.69;;;-0.18;100.00
5574;BME280;2563;52.242;7.956;2023-01-29T06:16:11;100096.00;;;-0.14;100.00
5574;BME280;2563;52.242;7.956;2023-01-29T06:18:37;100053.00;;;-0.14;100.00
5574;BME280;2563;52.242;7.956;2023-01-29T06:21:04;100047.13;;;-0.12;100.00
5574;BME280;2563;52.242;7.956;2023-01-29T06:23:30;100057.25;;;-0.10;100.00
5574;BME280;2563;52.242;7.956;2023-01-29T06:26:04;100066.53;;;-0.11;100.00
5574;BME280;2563;52.242;7.956;2023-01-29T06:28:30;100059.78;;;-0.10;100.00
5574;BME280;2563;52.242;7.956;2023-01-29T06:31:00;100052.19;;;-0.10;100.00
5574;BME280;2563;52.242;7.956;2023-01-29T06:33:26;100048.81;;;-0.11;100.00
5574;BME280;2563;52.242;7.956;2023-01-29T06:35:56;100036.13;;;-0.15;100.00
5574;BME280;2563;52.242;7.956;2023-01-29T06:38:22;100025.22;;;-0.11;100.00
5574;BME280;2563;52.242;7.956;2023-01-29T06:40:47;100030.28;;;-0.11;100.00
5574;BME280;2563;52.242;7.956;2023-01-29T06:43:12;100022.66;;;-0.14;100.00
5574;BME280;2563;52.242;7.956;2023-01-29T06:45:38;100023.47;;;-0.15;100.00
5574;BME280;2563;52.242;7.956;2023-01-29T06:48:09;100010.03;;;-0.14;100.00
5574;BME280;2563;52.242;7.956;2023-01-29T06:50:35;100003.25;;;-0.15;100.00
5574;BME280;2563;52.242;7.956;2023-01-29T06:53:00;99996.50;;;-0.16;100.00
5574;BME280;2563;52.242;7.956;2023-01-29T06:55:25;99989.78;;;-0.14;100.00
5574;BME280;2563;52.242;7.956;2023-01-29T06:57:51;99975.44;;;-0.14;100.00
5574;BME280;2563;52.242;7.956;2023-01-29T07:00:16;99982.16;;;-0.16;100.00
5574;BME280;2563;52.242;7.956;2023-01-29T07:02:42;99972.91;;;-0.15;100.00
5574;BME280;2563;52.242;7.956;2023-01-29T07:05:07;99970.41;;;-0.14;100.00
5574;BME280;2563;52.242;7.956;2023-01-29T07:07:34;99961.97;;;-0.13;100.00
5574;BME280;2563;52.242;7.956;2023-01-29T07:10:00;99960.28;;;-0.12;100.00
5574;BME280;2563;52.242;7.956;2023-01-29T07:12:26;99951.03;;;-0.12;100.00
5574;BME280;2563;52.242;7.956;2023-01-29T07:14:51;99946.81;;;-0.10;100.00
5574;BME280;2563;52.242;7.956;2023-01-29T07:17:16;99940.06;;;-0.11;100.00
5574;BME280;2563;52.242;7.956;2023-01-29T07:19:42;99937.56;;;-0.09;100.00
5574;BME280;2563;52.242;7.956;2023-01-29T07:22:07;99906.34;;;-0.10;100.00
5574;BME280;2563;52.242;7.956;2023-01-29T07:24:32;99897.91;;;-0.10;100.00
5574;BME280;2563;52.242;7.956;2023-01-29T07:26:58;99890.31;;;-0.10;100.00
5574;BME280;2563;52.242;7.956;2023-01-29T07:29:23;99876.84;;;-0.11;100.00
5574;BME280;2563;52.242;7.956;2023-01-29T07:31:48;99881.91;;;-0.09;100.00
5574;BME280;2563;52.242;7.956;2023-01-29T07:34:14;99881.06;;;-0.08;100.00
5574;BME280;2563;52.242;7.956;2023-01-29T07:36:39;99876.03;;;-0.07;100.00
5574;BME280;2563;52.242;7.956;2023-01-29T07:39:04;99867.59;;;-0.06;100.00
5574;BME280;2563;52.242;7.956;2023-01-29T07:41:30;99861.69;;;-0.06;100.00
5574;BME280;2563;52.242;7.956;2023-01-29T07:43:55;99866.78;;;-0.03;100.00
5574;BME280;2563;52.242;7.956;2023-01-29T07:46:20;99860.84;;;-0.05;100.00
5574;BME280;2563;52.242;7.956;2023-01-29T07:48:46;99856.66;;;-0.05;100.00
5574;BME280;2563;52.242;7.956;2023-01-29T07:51:11;99849.91;;;-0.04;100.00
5574;BME280;2563;52.242;7.956;2023-01-29T07:53:36;99850.78;;;-0.02;100.00
5574;BME280;2563;52.242;7.956;2023-01-29T07:56:02;99833.06;;;-0.01;100.00
5574;BME280;2563;52.242;7.956;2023-01-29T07:58:27;99815.38;;;0.01;100.00
5574;BME280;2563;52.242;7.956;2023-01-29T08:00:53;99812.88;;;0.03;100.00
5574;BME280;2563;52.242;7.956;2023-01-29T08:03:18;99818.75;;;0.05;100.00
5574;BME280;2563;52.242;7.956;2023-01-29T08:05:45;99813.69;;;0.05;100.00
5574;BME280;2563;52.242;7.956;2023-01-29T08:08:11;99798.56;;;0.08;100.00
5574;BME280;2563;52.242;7.956;2023-01-29T08:10:37;99792.63;;;0.07;100.00
5574;BME280;2563;52.242;7.956;2023-01-29T08:13:04;99773.25;;;0.09;100.00
5574;BME280;2563;52.242;7.956;2023-01-29T08:15:30;99753.88;;;0.11;100.00
5574;BME280;2563;52.242;7.956;2023-01-29T08:17:56;99752.19;;;0.16;100.00
5574;BME280;2563;52.242;7.956;2023-01-29T08:20:22;99742.09;;;0.21;100.00
5574;BME280;2563;52.242;7.956;2023-01-29T08:22:47;99742.13;;;0.26;100.00
5574;BME280;2563;52.242;7.956;2023-01-29T08:25:14;99740.47;;;0.35;100.00
5574;BME280;2563;52.242;7.956;2023-01-29T08:27:40;99749.81;;;0.41;100.00
5574;BME280;2563;52.242;7.956;2023-01-29T08:30:06;99759.13;;;0.48;100.00
5574;BME280;2563;52.242;7.956;2023-01-29T08:32:32;99764.16;;;0.47;100.00
5574;BME280;2563;52.242;7.956;2023-01-29T08:34:57;99764.19;;;0.48;100.00
5574;BME280;2563;52.242;7.956;2023-01-29T08:37:23;99786.13;;;0.52;100.00
5574;BME280;2563;52.242;7.956;2023-01-29T08:39:48;99785.28;;;0.55;100.00
5574;BME280;2563;52.242;7.956;2023-01-29T08:42:14;99786.97;;;0.57;100.00
5574;BME280;2563;52.242;7.956;2023-01-29T08:44:39;99799.63;;;0.54;100.00
5574;BME280;2563;52.242;7.956;2023-01-29T08:47:05;99803.03;;;0.56;100.00
5574;BME280;2563;52.242;7.956;2023-01-29T08:49:30;99803.03;;;0.56;100.00
5574;BME280;2563;52.242;7.956;2023-01-29T08:51:55;99803.91;;;0.63;100.00
5574;BME280;2563;52.242;7.956;2023-01-29T08:54:22;99806.41;;;0.64;100.00
5574;BME280;2563;52.242;7.956;2023-01-29T08:56:47;99839.34;;;0.63;100.00
5574;BME280;2563;52.242;7.956;2023-01-29T08:59:13;99841.03;;;0.64;100.00
5574;BME280;2563;52.242;7.956;2023-01-29T09:01:39;99838.50;;;0.62;100.00
5574;BME280;2563;52.242;7.956;2023-01-29T09:04:04;99844.41;;;0.66;100.00
5574;BME280;2563;52.242;7.956;2023-01-29T09:06:30;99847.81;;;0.68;100.00
5574;BME280;2563;52.242;7.956;2023-01-29T09:08:55;99856.28;;;0.73;100.00
5574;BME280;2563;52.242;7.956;2023-01-29T09:11:20;99860.50;;;0.76;100.00
5574;BME280;2563;52.242;7.956;2023-01-29T09:13:46;99874.03;;;0.78;100.00
5574;BME280;2563;52.242;7.956;2023-01-29T09:16:11;99882.50;;;0.86;100.00
5574;BME280;2563;52.242;7.956;2023-01-29T09:18:37;99892.66;;;0.95;100.00
5574;BME280;2563;52.242;7.956;2023-01-29T09:21:02;99913.78;;;0.96;100.00
5574;BME280;2563;52.242;7.956;2023-01-29T09:23:28;99924.78;;;0.96;100.00
5574;BME280;2563;52.242;7.956;2023-01-29T09:25:55;99925.63;;;1.03;100.00
5574;BME280;2563;52.242;7.956;2023-01-29T09:28:20;99924.00;;;1.08;100.00
5574;BME280;2563;52.242;7.956;2023-01-29T09:30:46;99936.66;;;1.10;100.00
5574;BME280;2563;52.242;7.956;2023-01-29T09:33:11;99951.88;;;1.13;100.00
5574;BME280;2563;52.242;7.956;2023-01-29T09:35:39;99955.25;;;1.15;100.00
5574;BME280;2563;52.242;7.956;2023-01-29T09:38:05;99954.44;;;1.22;100.00
5574;BME280;2563;52.242;7.956;2023-01-29T09:43:03;99965.44;;;1.21;100.00
5574;BME280;2563;52.242;7.956;2023-01-29T09:45:31;99953.63;;;1.26;100.00
5574;BME280;2563;52.242;7.956;2023-01-29T09:48:00;99954.47;;;1.28;100.00
5574;BME280;2563;52.242;7.956;2023-01-29T09:50:37;99963.75;;;1.26;100.00
5574;BME280;2563;52.242;7.956;2023-01-29T09:53:16;99962.06;;;1.23;100.00
5574;BME280;2563;52.242;7.956;2023-01-29T09:55:47;99959.50;;;1.22;100.00
5574;BME280;2563;52.242;7.956;2023-01-29T10:03:53;99970.50;;;1.21;100.00
5574;BME280;2563;52.242;7.956;2023-01-29T10:25:18;100012.78;;;1.31;100.00
5574;BME280;2563;52.242;7.956;2023-01-29T10:27:48;100016.19;;;1.33;100.00
5574;BME280;2563;52.242;7.956;2023-01-29T10:30:29;100016.16;;;1.32;100.00
5574;BME280;2563;52.242;7.956;2023-01-29T10:33:00;100009.44;;;1.35;100.00
5574;BME280;2563;52.242;7.956;2023-01-29T10:35:33;100011.13;;;1.33;100.00
5574;BME280;2563;52.242;7.956;2023-01-29T10:49:21;99985.06;;;1.82;100.00
5574;BME280;2563;52.242;7.956;2023-01-29T10:52:10;99984.22;;;1.84;100.00
5574;BME280;2563;52.242;7.956;2023-01-29T10:57:58;100001.13;;;1.79;100.00
5574;BME280;2563;52.242;7.956;2023-01-29T11:00:34;99996.06;;;1.91;100.00
5574;BME280;2563;52.242;7.956;2023-01-29T11:03:15;99995.25;;;2.03;100.00
5574;BME280;2563;52.242;7.956;2023-01-29T11:05:46;100007.97;;;2.02;100.00
5574;BME280;2563;52.242;7.956;2023-01-29T11:08:19;100018.94;;;2.01;100.00
5574;BME280;2563;52.242;7.956;2023-01-29T11:13:26;100040.09;;;2.06;100.00
5574;BME280;2563;52.242;7.956;2023-01-29T11:15:55;100040.13;;;2.09;100.00
5574;BME280;2563;52.242;7.956;2023-01-29T11:18:20;100044.34;;;2.07;100.00
5574;BME280;2563;52.242;7.956;2023-01-29T11:20:59;100059.59;;;2.08;100.00
5574;BME280;2563;52.242;7.956;2023-01-29T11:23:27;100060.44;;;2.12;100.00
5574;BME280;2563;52.242;7.956;2023-01-29T11:25:54;100064.66;;;2.15;100.00
5574;BME280;2563;52.242;7.956;2023-01-29T11:28:44;100080.75;;;2.12;100.00
5574;BME280;2563;52.242;7.956;2023-01-29T11:31:35;100085.81;;;2.10;100.00
5574;BME280;2563;52.242;7.956;2023-01-29T11:34:11;100106.09;;;2.06;100.00
5574;BME280;2563;52.242;7.956;2023-01-29T11:36:38;100111.19;;;2.15;100.00
5574;BME280;2563;52.242;7.956;2023-01-29T11:42:03;100145.03;;;2.08;100.00
5574;BME280;2563;52.242;7.956;2023-01-29T11:44:34;100161.09;;;2.07;100.00
5574;BME280;2563;52.242;7.956;2023-01-29T11:47:22;100166.19;;;2.07;100.00
5574;BME280;2563;52.242;7.956;2023-01-29T11:49:52;100173.81;;;2.10;100.00
5574;BME280;2563;52.242;7.956;2023-01-29T11:52:22;100178.94;;;2.19;100.00
5574;BME280;2563;52.242;7.956;2023-01-29T11:54:53;100181.47;;;2.16;100.00
5574;BME280;2563;52.242;7.956;2023-01-29T11:57:31;100184.00;;;2.16;100.00
5574;BME280;2563;52.242;7.956;2023-01-29T12:00:12;100193.28;;;2.11;100.00
5574;BME280;2563;52.242;7.956;2023-01-29T12:02:44;100215.25;;;2.07;100.00
5574;BME280;2563;52.242;7.956;2023-01-29T12:05:16;100221.22;;;2.14;100.00
5574;BME280;2563;52.242;7.956;2023-01-29T12:07:46;100225.41;;;2.07;100.00
5574;BME280;2563;52.242;7.956;2023-01-29T12:13:09;100237.28;;;2.13;100.00
5574;BME280;2563;52.242;7.956;2023-01-29T12:15:46;100238.97;;;2.12;100.00
5574;BME280;2563;52.242;7.956;2023-01-29T12:18:48;100239.78;;;2.04;100.00
5574;BME280;2563;52.242;7.956;2023-01-29T12:21:14;100253.31;;;2.03;100.00
5574;BME280;2563;52.242;7.956;2023-01-29T12:23:51;100263.47;;;2.06;100.00
5574;BME280;2563;52.242;7.956;2023-01-29T12:26:28;100259.28;;;2.09;100.00
5574;BME280;2563;52.242;7.956;2023-01-29T12:34:43;100261.84;;;2.14;100.00
5574;BME280;2563;52.242;7.956;2023-01-29T12:37:24;100269.47;;;2.14;100.00
5574;BME280;2563;52.242;7.956;2023-01-29T12:39:53;100274.50;;;2.06;100.00
5574;BME280;2563;52.242;7.956;2023-01-29T12:42:23;100276.16;;;2.06;100.00
5574;BME280;2563;52.242;7.956;2023-01-29T12:47:20;100281.22;;;2.06;100.00
5574;BME280;2563;52.242;7.956;2023-01-29T12:49:51;100288.88;;;2.09;100.00
5574;BME280;2563;52.242;7.956;2023-01-29T12:52:22;100285.50;;;2.10;100.00
5574;BME280;2563;52.242;7.956;2023-01-29T12:55:02;100272.88;;;2.21;100.00
5574;BME280;2563;52.242;7.956;2023-01-29T12:57:40;100282.97;;;2.11;100.00
5574;BME280;2563;52.242;7.956;2023-01-29T13:00:28;100281.31;;;2.13;100.00
5574;BME280;2563;52.242;7.956;2023-01-29T13:05:47;100283.84;;;2.15;100.00
5574;BME280;2563;52.242;7.956;2023-01-29T13:08:33;100268.66;;;2.21;100.00
5574;BME280;2563;52.242;7.956;2023-01-29T13:11:05;100276.19;;;2.09;100.00
5574;BME280;2563;52.242;7.956;2023-01-29T13:13:36;100281.28;;;2.12;100.00
5574;BME280;2563;52.242;7.956;2023-01-29T13:16:09;100281.28;;;2.09;100.00
5574;BME280;2563;52.242;7.956;2023-01-29T13:21:05;100289.78;;;2.16;100.00
5574;BME280;2563;52.242;7.956;2023-01-29T13:23:47;100285.50;;;2.10;100.00
5574;BME280;2563;52.242;7.956;2023-01-29T13:26:18;100288.03;;;2.13;100.00
5574;BME280;2563;52.242;7.956;2023-01-29T13:28:44;100286.38;;;2.13;100.00
5574;BME280;2563;52.242;7.956;2023-01-29T13:31:35;100290.63;;;2.16;100.00
5574;BME280;2563;52.242;7.956;2023-01-29T13:36:43;100288.06;;;2.11;100.00
5574;BME280;2563;52.242;7.956;2023-01-29T13:41:50;100286.38;;;2.17;100.00
5574;BME280;2563;52.242;7.956;2023-01-29T13:44:20;100283.84;;;2.15;100.00
5574;BME280;2563;52.242;7.956;2023-01-29T13:46:53;100268.59;;;2.12;100.00
5574;BME280;2563;52.242;7.956;2023-01-29T13:49:33;100268.59;;;2.09;100.00
5574;BME280;2563;52.242;7.956;2023-01-29T13:52:30;100267.72;;;2.04;100.00
5574;BME280;2563;52.242;7.956;2023-01-29T13:55:04;100261.78;;;2.02;100.00
5574;BME280;2563;52.242;7.956;2023-01-29T14:02:46;100231.31;;;2.02;100.00
5574;BME280;2563;52.242;7.956;2023-01-29T14:08:00;100218.59;;;1.94;100.00
5574;BME280;2563;52.242;7.956;2023-01-29T14:10:31;100212.69;;;1.97;100.00
5574;BME280;2563;52.242;7.956;2023-01-29T14:15:33;100180.47;;;1.91;100.00
5574;BME280;2563;52.242;7.956;2023-01-29T14:20:58;100164.41;;;1.94;100.00
5574;BME280;2563;52.242;7.956;2023-01-29T14:28:51;100134.81;;;1.89;100.00
5574;BME280;2563;52.242;7.956;2023-01-29T14:33:59;100100.97;;;1.90;100.00
5574;BME280;2563;52.242;7.956;2023-01-29T14:36:25;100086.56;;;1.86;100.00
5574;BME280;2563;52.242;7.956;2023-01-29T14:38:52;100082.34;;;1.82;100.00
5574;BME280;2563;52.242;7.956;2023-01-29T14:41:30;100068.78;;;1.79;100.00
5574;BME280;2563;52.242;7.956;2023-01-29T14:46:59;100039.19;;;1.78;100.00
5574;BME280;2563;52.242;7.956;2023-01-29T14:49:47;100020.56;;;1.71;100.00
5574;BME280;2563;52.242;7.956;2023-01-29T14:52:13;100002.78;;;1.62;100.00
5574;BME280;2563;52.242;7.956;2023-01-29T14:54:40;99994.31;;;1.57;100.00
5574;BME280;2563;52.242;7.956;2023-01-29T14:57:10;99975.72;;;1.56;100.00
5574;BME280;2563;52.242;7.956;2023-01-29T14:59:54;99960.47;;;1.55;100.00
5574;BME280;2563;52.242;7.956;2023-01-29T15:02:23;99940.22;;;1.56;100.00
5574;BME280;2563;52.242;7.956;2023-01-29T15:04:56;99914.84;;;1.52;100.00
5574;BME280;2563;52.242;7.956;2023-01-29T15:12:32;99866.63;;;1.45;100.00
5574;BME280;2563;52.242;7.956;2023-01-29T15:18:13;99836.19;;;1.42;100.00
5574;BME280;2563;52.242;7.956;2023-01-29T15:20:42;99823.50;;;1.36;100.00
5574;BME280;2563;52.242;7.956;2023-01-29T15:23:28;99804.94;;;1.34;100.00
5574;BME280;2563;52.242;7.956;2023-01-29T15:25:56;99778.75;;;1.32;100.00
5574;BME280;2563;52.242;7.956;2023-01-29T15:28:23;99753.34;;;1.29;100.00
5574;BME280;2563;52.242;7.956;2023-01-29T15:30:56;99730.56;;;1.29;100.00
5574;BME280;2563;52.242;7.956;2023-01-29T15:33:23;99711.13;;;1.28;100.00
5574;BME280;2563;52.242;7.956;2023-01-29T15:35:54;99683.25;;;1.28;100.00
5574;BME280;2563;52.242;7.956;2023-01-29T15:38:23;99662.97;;;1.26;100.00
5574;BME280;2563;52.242;7.956;2023-01-29T15:40:58;99627.47;;;1.28;100.00
5574;BME280;2563;52.242;7.956;2023-01-29T15:43:25;99602.13;;;1.28;100.00
5574;BME280;2563;52.242;7.956;2023-01-29T15:45:54;99594.53;;;1.28;100.00
5574;BME280;2563;52.242;7.956;2023-01-29T15:48:30;99571.72;;;1.28;100.00
5574;BME280;2563;52.242;7.956;2023-01-29T15:50:57;99555.69;;;1.27;100.00
5574;BME280;2563;52.242;7.956;2023-01-29T15:53:28;99532.00;;;1.28;100.00
5574;BME280;2563;52.242;7.956;2023-01-29T15:55:56;99522.72;;;1.26;100.00
5574;BME280;2563;52.242;7.956;2023-01-29T15:58:28;99523.56;;;1.25;100.00
5574;BME280;2563;52.242;7.956;2023-01-29T16:00:56;99505.81;;;1.22;100.00
5574;BME280;2563;52.242;7.956;2023-01-29T16:03:24;99502.47;;;1.23;100.00
5574;BME280;2563;52.242;7.956;2023-01-29T16:05:51;99489.78;;;1.23;100.00